Sainte-Foy, Canada
Current Conditions -  °F | °C
As of 5:00 AM on Tuesday 27 Jan 2015 (Local Time) from CYQB Reporting Station
Blowing Snow Blowing Snow  
Wind Chill: -15°   Ceiling: 22000
Heat Index:   Visibility: 15mi
Dew Point: -4°   Wind: 20mph
Humidity: 66%   Direction: 50°NE
Pressure: 30.18"   Gusts: 38mph
Location:  46.78°N, 71.3°W
Report Text: CYQB 271000Z 05017G33KT 15SM -SHSN DRSN SCT020 OVC220 M15/M20 A3018 RMK SC4CI4 SLP227
Loading
Personal Weather Stations






























Interactive Weather Map New forecast layout! Learn more

10-Day Weather Forecast

Advertisements
Track Severe Weather on mobile